Time;durP1;ratioP1;P1;durP2;ratioP2;P2;SDS_P1;SDS_P2;PMS_P1;PMS_P2;Temp;Humidity;BMP_temperature;BMP_pressure;BME280_temperature;BME280_humidity;BME280_pressure;Samples;Min_cycle;Max_cycle;Signal;HPM_P1;HPM_P2
2022/12/30 00:02:08;;;;;;;12.50;2.15;;;22.40;99.90;;;;;;4992242;28;20282;-84
2022/12/30 00:04:39;;;;;;;9.80;2.45;;;22.50;99.90;;;;;;4991320;28;20224;-83
2022/12/30 00:07:10;;;;;;;12.60;2.75;;;22.60;99.90;;;;;;4985165;28;20584;-86
2022/12/30 00:09:41;;;;;;;10.30;2.72;;;22.70;99.90;;;;;;4994858;28;20626;-84
2022/12/30 00:35:02;;;;;;;9.63;2.70;;;23.10;99.90;;;;;;4994214;28;20211;-84
2022/12/30 00:37:32;;;;;;;8.13;2.13;;;23.10;99.90;;;;;;4994466;28;20694;-81
2022/12/30 00:40:03;;;;;;;8.90;2.28;;;23.20;99.90;;;;;;4994956;28;20200;-82
2022/12/30 00:45:21;;;;;;;9.40;2.38;;;23.30;99.90;;;;;;4995389;28;20759;-82
2022/12/30 00:47:54;;;;;;;10.15;2.42;;;23.40;99.90;;;;;;4994191;28;20642;-78
2022/12/30 00:56:12;;;;;;;7.05;2.30;;;23.50;99.90;;;;;;4991896;28;20226;-80
2022/12/30 00:58:43;;;;;;;8.52;2.15;;;23.40;99.90;;;;;;4994966;28;20183;-82
2022/12/30 01:01:15;;;;;;;6.85;2.10;;;23.40;99.90;;;;;;4985181;28;20208;-80
2022/12/30 01:03:48;;;;;;;8.38;2.10;;;23.30;99.90;;;;;;4987472;28;20228;-82
2022/12/30 01:06:19;;;;;;;8.68;2.10;;;23.20;99.90;;;;;;4993954;28;20227;-83
2022/12/30 01:08:50;;;;;;;6.63;1.92;;;23.20;99.90;;;;;;4991974;28;20205;-82
2022/12/30 01:11:20;;;;;;;7.63;2.10;;;23.30;99.90;;;;;;4993521;28;20282;-80
2022/12/30 01:13:51;;;;;;;7.25;2.15;;;23.30;99.90;;;;;;4992827;28;20756;-81
2022/12/30 01:16:22;;;;;;;8.80;2.80;;;23.40;99.90;;;;;;4993115;28;20619;-82
2022/12/30 01:18:55;;;;;;;5.70;2.00;;;23.30;99.90;;;;;;4991583;28;20283;-81
2022/12/30 01:21:26;;;;;;;8.27;2.40;;;23.30;99.90;;;;;;4990452;28;20286;-79
2022/12/30 01:23:56;;;;;;;10.13;2.13;;;23.40;99.90;;;;;;4994540;28;20275;-82
2022/12/30 01:26:27;;;;;;;10.05;2.45;;;23.50;99.90;;;;;;4993487;28;20211;-80
2022/12/30 01:28:58;;;;;;;8.93;2.17;;;23.60;99.90;;;;;;4991456;28;20198;-80
2022/12/30 01:31:33;;;;;;;7.78;1.88;;;23.60;99.90;;;;;;4991238;28;20283;-79
2022/12/30 01:34:08;;;;;;;6.93;2.10;;;23.60;99.90;;;;;;4982811;28;20209;-80
2022/12/30 01:36:41;;;;;;;3.53;1.70;;;23.60;99.90;;;;;;4987605;28;20199;-81
2022/12/30 01:39:12;;;;;;;11.07;2.00;;;23.60;99.90;;;;;;4984241;28;20295;-81
2022/12/30 01:41:42;;;;;;;6.80;1.90;;;23.70;99.90;;;;;;4990990;28;20201;-80
2022/12/30 01:44:44;;;;;;;5.03;1.90;;;23.70;99.90;;;;;;4985618;28;20282;-79
2022/12/30 01:47:17;;;;;;;9.35;1.80;;;23.70;99.90;;;;;;4973120;28;20235;-79
2022/12/30 01:49:53;;;;;;;9.48;2.53;;;23.70;99.90;;;;;;4991321;28;20313;-79
2022/12/30 01:52:27;;;;;;;6.53;1.90;;;23.60;99.90;;;;;;4972100;28;20207;-80
2022/12/30 01:55:05;;;;;;;6.10;1.80;;;23.50;99.90;;;;;;4994293;28;20719;-79
2022/12/30 01:57:46;;;;;;;5.47;1.60;;;23.60;99.90;;;;;;4992261;28;20203;-79
2022/12/30 02:00:17;;;;;;;8.75;2.13;;;23.50;99.90;;;;;;4992428;28;20202;-79
2022/12/30 02:02:48;;;;;;;8.32;2.20;;;23.50;99.90;;;;;;4989647;28;20646;-78
2022/12/30 02:05:27;;;;;;;4.82;1.50;;;23.60;99.90;;;;;;4991789;28;20192;-80
2022/12/30 02:08:02;;;;;;;7.43;1.95;;;23.70;99.90;;;;;;4983642;28;20203;-76
2022/12/30 02:10:34;;;;;;;12.55;1.95;;;23.70;99.90;;;;;;4983630;28;20199;-79
2022/12/30 02:13:05;;;;;;;6.50;1.88;;;23.70;99.90;;;;;;4986642;28;20203;-80
2022/12/30 02:15:45;;;;;;;9.82;2.10;;;23.70;99.90;;;;;;4989579;28;20278;-80
2022/12/30 02:18:27;;;;;;;7.75;1.88;;;23.80;99.90;;;;;;4980167;28;20286;-80
2022/12/30 02:21:40;;;;;;;8.20;2.00;;;23.80;99.90;;;;;;4982398;28;20207;-78
2022/12/30 02:24:48;;;;;;;6.28;1.90;;;23.80;99.90;;;;;;4961154;28;20203;-78
2022/12/30 02:27:57;;;;;;;6.28;1.70;;;23.90;99.90;;;;;;4985471;28;20261;-80
2022/12/30 02:30:35;;;;;;;6.28;1.75;;;23.80;99.90;;;;;;4986755;28;20200;-78
2022/12/30 02:33:20;;;;;;;6.18;2.00;;;23.80;99.90;;;;;;4991710;28;20206;-79
2022/12/30 02:36:06;;;;;;;7.30;1.70;;;24.00;99.90;;;;;;4990810;28;20198;-78
2022/12/30 02:38:46;;;;;;;5.50;1.50;;;23.90;99.90;;;;;;4990819;28;20770;-78
2022/12/30 02:47:06;;;;;;;4.15;1.52;;;24.00;99.90;;;;;;4975606;28;20255;-78
2022/12/30 02:49:42;;;;;;;6.32;1.85;;;24.10;99.90;;;;;;4999999;28;20252;-79
2022/12/30 02:52:16;;;;;;;5.38;2.00;;;24.20;99.90;;;;;;4991604;28;20201;-79
2022/12/30 02:54:50;;;;;;;6.25;1.60;;;24.20;99.90;;;;;;4983445;28;20200;-78
2022/12/30 02:57:27;;;;;;;7.38;1.80;;;24.20;99.90;;;;;;4987748;28;20652;-79
2022/12/30 03:06:06;;;;;;;5.15;1.60;;;24.20;99.90;;;;;;4985999;28;20567;-80
2022/12/30 03:08:49;;;;;;;5.53;1.50;;;24.10;99.90;;;;;;4996996;28;20261;-78
2022/12/30 03:11:19;;;;;;;6.00;1.48;;;24.10;99.90;;;;;;4997120;28;20679;-78
2022/12/30 03:13:58;;;;;;;5.68;1.50;;;24.00;99.90;;;;;;4996972;28;20212;-78
2022/12/30 03:16:35;;;;;;;5.60;1.50;;;24.00;99.90;;;;;;4997125;28;20195;-78
2022/12/30 03:19:08;;;;;;;5.22;1.45;;;24.10;99.90;;;;;;4986050;28;20199;-78
2022/12/30 03:21:44;;;;;;;6.78;2.00;;;24.10;99.90;;;;;;4993605;28;20206;-77
2022/12/30 03:27:11;;;;;;;6.15;1.80;;;24.20;99.90;;;;;;4990689;28;20230;-76
2022/12/30 03:29:50;;;;;;;8.25;1.70;;;24.20;99.90;;;;;;4977347;28;20196;-76
2022/12/30 03:32:23;;;;;;;6.50;1.55;;;24.20;99.90;;;;;;4976296;28;20563;-77
2022/12/30 03:34:57;;;;;;;7.30;1.48;;;24.20;99.90;;;;;;4993104;28;20205;-77
2022/12/30 03:37:35;;;;;;;5.72;1.40;;;24.10;99.90;;;;;;4993845;28;20207;-78
2022/12/30 03:40:09;;;;;;;6.95;1.27;;;24.10;99.90;;;;;;4992085;28;20209;-79
2022/12/30 03:42:40;;;;;;;5.28;1.70;;;24.10;99.90;;;;;;4986619;28;20207;-77
2022/12/30 03:45:13;;;;;;;5.95;1.42;;;24.00;99.90;;;;;;4995472;28;20627;-78
2022/12/30 03:47:44;;;;;;;6.00;1.38;;;24.10;99.90;;;;;;4996049;28;20310;-78
2022/12/30 03:50:15;;;;;;;6.05;1.80;;;24.20;99.90;;;;;;4996266;28;20192;-77
2022/12/30 03:52:47;;;;;;;6.20;1.35;;;24.20;99.90;;;;;;4996448;28;20326;-77
2022/12/30 03:55:18;;;;;;;7.50;1.88;;;24.20;99.90;;;;;;4991082;28;20200;-77
2022/12/30 03:57:49;;;;;;;5.00;1.35;;;24.10;99.90;;;;;;4995671;28;20200;-77
2022/12/30 04:00:22;;;;;;;4.22;1.40;;;24.20;99.90;;;;;;4995527;28;20278;-78
2022/12/30 04:02:53;;;;;;;7.97;1.73;;;24.10;99.90;;;;;;4995066;28;20580;-77
2022/12/30 04:05:23;;;;;;;12.30;1.98;;;24.10;99.90;;;;;;4996224;28;20560;-78
2022/12/30 04:07:56;;;;;;;5.15;1.45;;;24.10;99.90;;;;;;4995629;28;20224;-77
2022/12/30 04:10:27;;;;;;;5.95;1.60;;;24.20;99.90;;;;;;4996365;28;20219;-77
2022/12/30 04:12:58;;;;;;;7.03;1.60;;;24.30;99.90;;;;;;4995828;28;20191;-77
2022/12/30 04:15:28;;;;;;;5.90;1.70;;;24.50;99.90;;;;;;4995865;28;20658;-77
2022/12/30 04:17:59;;;;;;;7.22;1.50;;;24.70;99.90;;;;;;4990043;28;20210;-77
2022/12/30 04:20:31;;;;;;;7.38;1.38;;;24.90;99.90;;;;;;4991894;28;20200;-77
2022/12/30 04:23:05;;;;;;;8.05;1.52;;;25.00;99.90;;;;;;4993363;28;20279;-81
2022/12/30 04:25:36;;;;;;;8.57;1.65;;;25.00;99.90;;;;;;4991667;28;21227;-77
2022/12/30 04:28:07;;;;;;;8.30;1.60;;;25.00;99.90;;;;;;4992935;28;20247;-77
2022/12/30 04:30:38;;;;;;;6.78;1.25;;;24.90;99.90;;;;;;4992923;28;20200;-77
2022/12/30 04:33:08;;;;;;;4.70;1.40;;;24.80;99.90;;;;;;4993566;28;20258;-77
2022/12/30 04:35:39;;;;;;;6.57;1.30;;;24.80;99.90;;;;;;4992502;28;20204;-77
2022/12/30 04:38:13;;;;;;;6.97;1.65;;;24.50;99.90;;;;;;4992411;28;20306;-77
2022/12/30 04:40:43;;;;;;;5.22;1.50;;;24.50;99.90;;;;;;4994116;28;20206;-77
2022/12/30 04:43:14;;;;;;;4.18;1.27;;;24.40;99.90;;;;;;4992144;28;20204;-77
2022/12/30 04:45:46;;;;;;;8.23;1.60;;;24.50;99.90;;;;;;4992759;28;20197;-77
2022/12/30 04:48:16;;;;;;;8.30;1.60;;;24.30;99.90;;;;;;4979470;28;20235;-77
2022/12/30 04:50:48;;;;;;;8.18;2.00;;;24.30;99.90;;;;;;4993388;28;20288;-76
2022/12/30 04:53:22;;;;;;;8.07;1.60;;;24.30;99.90;;;;;;4994122;28;20253;-77
2022/12/30 04:55:55;;;;;;;8.77;1.60;;;24.30;99.90;;;;;;4988853;28;20191;-77
2022/12/30 04:58:26;;;;;;;6.57;1.35;;;24.20;99.90;;;;;;4992237;28;20299;-78
2022/12/30 05:00:57;;;;;;;8.10;1.55;;;24.20;99.90;;;;;;4991853;28;20324;-75
2022/12/30 05:03:28;;;;;;;6.93;1.58;;;24.30;99.90;;;;;;4975126;28;20279;-77
2022/12/30 05:06:00;;;;;;;5.80;1.75;;;24.30;99.90;;;;;;4975561;28;20279;-76
2022/12/30 05:08:34;;;;;;;4.68;1.23;;;24.30;99.90;;;;;;4975613;28;20220;-75
2022/12/30 05:11:05;;;;;;;4.10;1.40;;;24.30;99.90;;;;;;4975527;28;20197;-76
2022/12/30 05:13:36;;;;;;;7.80;1.50;;;24.30;99.90;;;;;;4975525;28;20238;-77
2022/12/30 05:16:07;;;;;;;6.70;1.60;;;24.30;99.90;;;;;;4975334;28;20279;-76
2022/12/30 05:18:38;;;;;;;3.60;1.33;;;24.40;99.90;;;;;;4975459;28;20226;-76
2022/12/30 05:21:15;;;;;;;6.30;1.25;;;24.50;99.90;;;;;;4974567;28;20649;-77
2022/12/30 05:26:34;;;;;;;8.88;1.50;;;24.50;99.90;;;;;;4975368;28;20195;-76
2022/12/30 05:29:05;;;;;;;7.25;1.70;;;24.40;99.90;;;;;;4975532;28;20291;-76
2022/12/30 05:31:38;;;;;;;5.85;1.55;;;24.40;99.90;;;;;;4975630;28;20279;-76
2022/12/30 05:34:09;;;;;;;3.97;1.10;;;24.50;99.90;;;;;;4975178;28;20715;-77
2022/12/30 05:36:43;;;;;;;8.27;1.98;;;24.40;99.90;;;;;;4975196;28;20205;-78
2022/12/30 05:39:16;;;;;;;8.20;2.00;;;24.40;99.90;;;;;;4975055;28;20649;-77
2022/12/30 05:41:47;;;;;;;10.77;2.53;;;24.30;99.90;;;;;;4975170;28;20227;-76
2022/12/30 05:44:18;;;;;;;5.63;1.60;;;24.30;99.90;;;;;;4974826;28;20291;-77
2022/12/30 05:46:50;;;;;;;5.88;1.70;;;24.20;99.90;;;;;;4974964;28;20192;-78
2022/12/30 05:49:21;;;;;;;5.30;1.50;;;24.10;99.90;;;;;;4974806;28;20231;-77
2022/12/30 05:51:52;;;;;;;8.60;1.60;;;24.00;99.90;;;;;;4974958;28;20280;-77
2022/12/30 05:54:27;;;;;;;8.93;1.83;;;24.00;99.90;;;;;;4974945;28;20199;-77
2022/12/30 05:57:00;;;;;;;7.32;1.60;;;23.90;99.90;;;;;;4974820;28;20280;-77
2022/12/30 05:59:32;;;;;;;5.78;1.83;;;23.80;99.90;;;;;;4974640;28;20275;-77
2022/12/30 06:02:03;;;;;;;9.43;1.90;;;23.80;99.90;;;;;;4974824;28;20279;-78
2022/12/30 06:04:34;;;;;;;7.80;1.60;;;23.70;99.90;;;;;;4974711;28;20283;-76
2022/12/30 06:10:29;;;;;;;6.15;1.75;;;23.50;99.90;;;;;;4991349;28;20198;-77
2022/12/30 06:13:00;;;;;;;7.72;1.70;;;23.50;99.90;;;;;;4993805;28;20198;-77
2022/12/30 06:15:31;;;;;;;5.97;1.88;;;23.40;99.90;;;;;;4994043;28;20275;-76
2022/12/30 06:18:01;;;;;;;10.02;1.63;;;23.40;99.90;;;;;;4993967;28;20282;-77
2022/12/30 06:20:35;;;;;;;7.50;1.63;;;23.40;99.90;;;;;;4994320;28;20730;-77
2022/12/30 06:23:06;;;;;;;7.82;1.50;;;23.40;99.90;;;;;;4993920;28;20218;-76
2022/12/30 06:25:39;;;;;;;9.85;1.85;;;23.40;99.90;;;;;;4994191;28;20632;-77
2022/12/30 06:28:09;;;;;;;8.10;1.80;;;23.40;99.90;;;;;;4993691;28;20230;-77
2022/12/30 06:30:40;;;;;;;5.18;1.50;;;23.30;99.90;;;;;;4993895;28;20276;-78
2022/12/30 06:33:12;;;;;;;8.15;1.80;;;23.30;99.90;;;;;;4997606;28;20195;-78
2022/12/30 06:35:42;;;;;;;7.10;1.70;;;23.30;99.90;;;;;;4997850;28;20533;-76
2022/12/30 06:38:13;;;;;;;5.32;1.60;;;23.30;99.90;;;;;;4996841;28;20204;-77
2022/12/30 06:40:49;;;;;;;6.20;1.60;;;23.30;99.90;;;;;;4997922;28;20194;-77
2022/12/30 06:43:20;;;;;;;6.85;1.77;;;23.20;99.90;;;;;;4997588;28;20191;-76
2022/12/30 06:45:50;;;;;;;4.35;1.52;;;23.30;99.90;;;;;;4996986;28;20196;-78
2022/12/30 06:48:22;;;;;;;7.15;2.00;;;23.30;99.90;;;;;;4994881;28;20237;-76
2022/12/30 06:51:01;;;;;;;3.47;1.60;;;23.30;99.90;;;;;;4990454;28;20571;-76
2022/12/30 06:53:33;;;;;;;7.60;1.70;;;23.40;99.90;;;;;;4994488;28;20199;-76
2022/12/30 06:56:06;;;;;;;7.45;1.60;;;23.40;99.90;;;;;;4995225;28;20192;-76
2022/12/30 06:58:37;;;;;;;6.18;1.60;;;23.40;99.90;;;;;;4990611;28;20615;-76
2022/12/30 07:01:11;;;;;;;6.82;1.40;;;23.30;99.90;;;;;;4992230;28;20231;-75
2022/12/30 07:03:42;;;;;;;7.25;1.60;;;23.30;99.90;;;;;;4990975;28;20206;-76
2022/12/30 07:06:12;;;;;;;5.78;1.65;;;23.30;99.90;;;;;;4993386;28;20306;-77
2022/12/30 07:08:44;;;;;;;9.48;1.90;;;23.30;99.90;;;;;;4996074;28;20552;-76
2022/12/30 07:11:17;;;;;;;7.68;1.77;;;23.20;99.90;;;;;;4993380;28;20327;-77
2022/12/30 07:13:48;;;;;;;6.70;1.88;;;23.20;99.90;;;;;;4992652;28;20204;-76
2022/12/30 07:16:19;;;;;;;7.93;2.38;;;23.20;99.90;;;;;;4991487;28;20287;-76
2022/12/30 07:18:50;;;;;;;7.22;1.92;;;23.10;99.90;;;;;;4994290;28;20290;-76
2022/12/30 07:21:21;;;;;;;7.97;1.80;;;23.10;99.90;;;;;;4996918;28;20207;-76
2022/12/30 07:23:52;;;;;;;8.57;2.00;;;23.00;99.90;;;;;;4994322;28;20203;-76
2022/12/30 07:26:25;;;;;;;7.88;1.90;;;23.00;99.90;;;;;;4995785;28;20199;-75
2022/12/30 07:28:57;;;;;;;5.88;1.83;;;23.10;99.90;;;;;;4995109;28;20223;-76
2022/12/30 07:31:28;;;;;;;8.18;1.80;;;23.00;99.90;;;;;;4993192;28;20290;-76
2022/12/30 07:33:59;;;;;;;11.05;2.15;;;23.10;99.90;;;;;;4978414;28;20203;-75
2022/12/30 07:36:30;;;;;;;10.73;2.00;;;23.10;99.90;;;;;;4978982;28;20206;-75
2022/12/30 07:39:00;;;;;;;9.75;1.90;;;23.10;99.90;;;;;;4995777;28;20282;-76
2022/12/30 07:41:33;;;;;;;7.57;2.00;;;23.00;99.90;;;;;;4992306;28;20206;-76
2022/12/30 07:44:04;;;;;;;7.57;1.85;;;23.00;99.90;;;;;;4993670;28;20685;-76
2022/12/30 07:46:36;;;;;;;6.30;2.25;;;23.00;99.90;;;;;;4993478;28;20286;-76
2022/12/30 07:49:07;;;;;;;9.20;2.25;;;23.00;99.90;;;;;;4995997;28;20720;-75
2022/12/30 07:51:38;;;;;;;9.48;2.15;;;22.90;99.90;;;;;;4992081;28;20196;-76
2022/12/30 07:54:09;;;;;;;8.73;2.10;;;22.90;99.90;;;;;;4994565;28;20283;-76
2022/12/30 07:56:44;;;;;;;10.23;2.15;;;23.00;99.90;;;;;;4993030;28;20560;-75
2022/12/30 07:59:15;;;;;;;7.20;2.25;;;22.90;99.90;;;;;;4994042;28;20282;-75
2022/12/30 08:01:46;;;;;;;10.50;1.88;;;22.90;99.90;;;;;;4993213;28;20204;-75
2022/12/30 08:04:17;;;;;;;7.95;1.90;;;22.90;99.90;;;;;;4995152;28;20719;-75
2022/12/30 08:06:47;;;;;;;11.38;2.30;;;22.90;99.90;;;;;;4992786;28;20227;-77
2022/12/30 08:09:18;;;;;;;7.90;2.00;;;22.90;99.90;;;;;;4994555;28;20663;-76
2022/12/30 08:11:51;;;;;;;9.27;2.25;;;22.80;99.90;;;;;;4983634;28;20236;-76
2022/12/30 08:14:22;;;;;;;8.18;2.30;;;22.80;99.90;;;;;;4990622;28;20191;-76
2022/12/30 08:16:54;;;;;;;8.20;2.45;;;22.80;99.90;;;;;;4990763;28;20233;-76
2022/12/30 08:19:25;;;;;;;9.77;2.50;;;22.80;99.90;;;;;;4994637;28;20210;-75
2022/12/30 08:21:55;;;;;;;10.60;2.17;;;22.70;99.90;;;;;;4994805;28;20655;-76
2022/12/30 08:24:26;;;;;;;9.85;2.45;;;22.70;99.90;;;;;;4993443;28;20199;-75
2022/12/30 08:27:00;;;;;;;7.28;2.65;;;22.70;99.90;;;;;;4995652;28;20231;-75
2022/12/30 08:29:34;;;;;;;9.55;2.30;;;22.60;99.90;;;;;;4994514;28;20224;-77
2022/12/30 08:32:05;;;;;;;8.70;1.98;;;22.60;99.90;;;;;;4987709;28;20278;-75
2022/12/30 08:34:36;;;;;;;10.05;2.20;;;22.60;99.90;;;;;;4993017;28;20754;-76
2022/12/30 08:37:07;;;;;;;5.68;2.33;;;22.60;99.90;;;;;;4993743;28;20203;-75
2022/12/30 08:39:38;;;;;;;5.63;1.90;;;22.50;99.90;;;;;;4995062;28;20299;-76
2022/12/30 08:42:11;;;;;;;10.20;2.30;;;22.50;99.90;;;;;;4992826;28;20215;-77
2022/12/30 08:44:42;;;;;;;9.60;2.13;;;22.50;99.90;;;;;;4995249;28;20296;-77
2022/12/30 08:47:13;;;;;;;9.48;2.00;;;22.40;99.90;;;;;;4995260;28;20199;-78
2022/12/30 08:49:43;;;;;;;8.80;1.92;;;22.40;99.90;;;;;;4994881;28;20245;-76
2022/12/30 08:52:14;;;;;;;7.82;2.10;;;22.40;99.90;;;;;;4995204;28;20234;-76
2022/12/30 08:54:46;;;;;;;9.35;2.00;;;22.40;99.90;;;;;;4991074;28;20294;-77
2022/12/30 08:57:20;;;;;;;11.20;2.03;;;22.30;99.90;;;;;;4994552;28;20196;-77
2022/12/30 08:59:52;;;;;;;8.68;1.98;;;22.30;99.90;;;;;;4982224;28;20290;-78
2022/12/30 09:02:24;;;;;;;11.52;2.67;;;22.30;99.90;;;;;;4993645;28;20566;-77
2022/12/30 09:04:55;;;;;;;5.30;2.10;;;22.30;99.90;;;;;;4994611;28;20306;-78
2022/12/30 09:07:26;;;;;;;9.43;2.33;;;22.20;99.90;;;;;;4994149;28;20287;-77
2022/12/30 09:09:57;;;;;;;10.85;2.38;;;22.20;99.90;;;;;;4993141;28;20223;-78
2022/12/30 09:12:29;;;;;;;6.03;2.53;;;22.20;99.90;;;;;;4994645;28;20287;-77
2022/12/30 09:15:00;;;;;;;10.55;2.47;;;22.10;99.90;;;;;;4992251;28;20278;-77
2022/12/30 09:17:31;;;;;;;10.20;2.20;;;22.10;99.90;;;;;;4993606;28;20206;-77
2022/12/30 09:20:02;;;;;;;6.38;2.20;;;22.10;99.90;;;;;;4993104;28;20214;-76
2022/12/30 09:22:33;;;;;;;7.65;1.95;;;22.10;99.90;;;;;;4990837;28;20206;-77
2022/12/30 09:25:03;;;;;;;6.55;1.88;;;22.00;99.90;;;;;;4993582;28;20551;-77
2022/12/30 09:27:36;;;;;;;6.60;1.90;;;22.00;99.90;;;;;;4994376;28;20287;-78
2022/12/30 09:30:07;;;;;;;8.38;2.20;;;22.00;99.90;;;;;;4992333;28;20302;-76
2022/12/30 09:32:38;;;;;;;9.68;2.20;;;22.00;99.90;;;;;;4992856;28;20248;-76
2022/12/30 09:35:10;;;;;;;9.35;2.13;;;21.90;99.90;;;;;;4990344;28;20638;-77
2022/12/30 09:37:40;;;;;;;12.80;3.20;;;21.90;99.90;;;;;;4991464;28;20199;-77
2022/12/30 09:40:18;;;;;;;10.90;2.47;;;21.90;99.90;;;;;;4994207;28;20723;-77
2022/12/30 09:46:11;;;;;;;8.07;2.28;;;21.80;99.90;;;;;;4934456;29;20297;-77
2022/12/30 09:48:47;;;;;;;11.90;2.00;;;21.80;99.90;;;;;;4934027;29;20239;-79
2022/12/30 09:51:24;;;;;;;11.40;2.13;;;21.80;99.90;;;;;;4968501;28;20723;-78
2022/12/30 09:53:58;;;;;;;9.35;2.00;;;21.70;99.90;;;;;;4991243;28;20205;-77
2022/12/30 09:56:34;;;;;;;8.50;2.40;;;21.70;99.90;;;;;;4981463;28;20290;-77
2022/12/30 09:59:13;;;;;;;8.77;2.05;;;21.70;99.90;;;;;;4992888;28;20719;-77
2022/12/30 10:01:47;;;;;;;7.75;2.30;;;21.70;99.90;;;;;;4993848;28;20200;-78
2022/12/30 10:04:22;;;;;;;10.18;2.35;;;21.70;99.90;;;;;;4992089;28;20213;-77
2022/12/30 10:07:03;;;;;;;9.90;2.20;;;21.70;99.90;;;;;;4991484;28;20250;-77
2022/12/30 10:09:47;;;;;;;10.55;2.28;;;21.70;99.90;;;;;;4991103;28;20230;-78
2022/12/30 10:12:39;;;;;;;8.98;2.00;;;21.70;99.90;;;;;;4988949;28;20290;-79
2022/12/30 10:15:35;;;;;;;10.77;2.20;;;21.60;99.90;;;;;;4986929;28;20203;-78
2022/12/30 10:18:28;;;;;;;10.23;2.40;;;21.60;99.90;;;;;;4984400;28;20299;-78
2022/12/30 10:21:15;;;;;;;8.63;2.30;;;21.60;99.90;;;;;;4987165;28;20278;-78
2022/12/30 10:24:04;;;;;;;11.90;2.05;;;21.60;99.90;;;;;;4991199;28;20195;-78
2022/12/30 10:26:43;;;;;;;6.85;2.10;;;21.60;99.90;;;;;;4986077;28;20247;-78
2022/12/30 10:29:19;;;;;;;8.23;2.35;;;21.60;99.90;;;;;;4982789;28;20216;-79
2022/12/30 10:31:53;;;;;;;11.10;2.15;;;21.50;99.90;;;;;;4992886;28;20207;-79
2022/12/30 10:34:29;;;;;;;7.45;2.10;;;21.50;99.90;;;;;;4992694;28;20629;-79
2022/12/30 10:37:07;;;;;;;10.75;2.15;;;21.50;99.90;;;;;;4993093;28;20195;-79
2022/12/30 10:39:40;;;;;;;9.23;2.25;;;21.50;99.90;;;;;;4990610;28;20204;-78
2022/12/30 10:42:25;;;;;;;7.20;2.15;;;21.50;99.90;;;;;;4993298;28;20303;-78
2022/12/30 10:45:08;;;;;;;9.95;2.08;;;21.50;99.90;;;;;;4986223;28;20206;-79
2022/12/30 10:47:54;;;;;;;5.90;2.08;;;21.40;99.90;;;;;;4992304;28;20571;-79
2022/12/30 10:50:37;;;;;;;7.60;1.95;;;21.40;99.90;;;;;;4989353;28;20306;-79
2022/12/30 10:53:13;;;;;;;6.03;2.15;;;21.40;99.90;;;;;;4992521;28;20205;-78
2022/12/30 10:55:49;;;;;;;8.73;2.20;;;21.40;99.90;;;;;;4991190;28;20278;-79
2022/12/30 10:58:32;;;;;;;10.23;2.60;;;21.40;99.90;;;;;;4988496;28;20207;-78
2022/12/30 11:01:04;;;;;;;8.48;2.35;;;21.40;99.90;;;;;;4985293;28;20210;-78
2022/12/30 11:03:46;;;;;;;7.85;2.03;;;21.40;99.90;;;;;;5004812;28;20238;-78
2022/12/30 11:06:23;;;;;;;9.43;2.30;;;21.40;99.90;;;;;;4981279;28;20299;-79
2022/12/30 11:08:56;;;;;;;10.20;2.42;;;21.30;99.90;;;;;;4991101;28;20215;-79
2022/12/30 11:14:42;;;;;;;5.60;1.88;;;21.30;99.90;;;;;;4991532;28;20200;-80
2022/12/30 11:17:24;;;;;;;5.05;1.92;;;21.30;99.90;;;;;;4984181;28;20379;-78
2022/12/30 11:20:02;;;;;;;5.82;2.42;;;21.20;99.90;;;;;;4990172;28;20203;-78
2022/12/30 11:22:33;;;;;;;8.48;1.98;;;21.30;99.90;;;;;;4991942;28;20208;-80
2022/12/30 11:25:06;;;;;;;9.60;2.47;;;21.30;99.90;;;;;;4994404;28;20202;-79
2022/12/30 11:27:43;;;;;;;8.07;2.22;;;21.30;99.90;;;;;;4987886;28;20286;-78
2022/12/30 11:30:27;;;;;;;6.72;2.30;;;21.30;99.90;;;;;;4991622;28;20693;-79
2022/12/30 11:32:59;;;;;;;12.20;2.50;;;21.30;99.90;;;;;;4988286;28;20211;-83
2022/12/30 11:35:44;;;;;;;10.60;2.63;;;21.30;99.90;;;;;;4990593;28;20210;-85
2022/12/30 11:38:30;;;;;;;11.68;2.45;;;21.30;99.90;;;;;;4991591;28;20191;-85
2022/12/30 11:41:15;;;;;;;9.65;2.70;;;21.10;99.90;;;;;;4992286;28;20206;-85
2022/12/30 11:43:46;;;;;;;6.45;2.53;;;21.10;99.90;;;;;;4988236;28;20196;-76
2022/12/30 11:46:18;;;;;;;11.20;2.80;;;20.90;99.90;;;;;;4990264;28;20685;-86
2022/12/30 11:48:51;;;;;;;7.95;2.47;;;20.90;99.90;;;;;;4991787;28;20266;-85
2022/12/30 11:51:26;;;;;;;8.30;2.40;;;20.80;99.90;;;;;;4990168;28;20287;-78
2022/12/30 11:54:07;;;;;;;8.38;2.53;;;20.80;99.90;;;;;;4991313;28;20286;-83
2022/12/30 11:56:39;;;;;;;9.05;2.30;;;20.70;99.90;;;;;;4989925;28;20200;-87
2022/12/30 11:59:16;;;;;;;8.45;2.35;;;20.70;99.90;;;;;;4993085;28;20610;-79
2022/12/30 12:01:50;;;;;;;6.32;2.38;;;20.70;99.90;;;;;;4989695;28;20195;-84
2022/12/30 12:04:37;;;;;;;9.13;2.40;;;20.70;99.90;;;;;;4990751;28;20730;-85
2022/12/30 12:07:24;;;;;;;8.65;2.28;;;20.70;99.90;;;;;;4989819;28;20298;-85
2022/12/30 12:10:04;;;;;;;8.60;2.50;;;20.70;99.90;;;;;;4991766;28;20220;-84
2022/12/30 12:12:41;;;;;;;10.55;3.03;;;20.70;99.90;;;;;;4989409;28;20274;-85
2022/12/30 12:15:28;;;;;;;8.65;2.40;;;20.70;99.90;;;;;;4992470;28;20250;-85
2022/12/30 12:18:02;;;;;;;8.30;2.17;;;20.60;99.90;;;;;;4994271;28;20216;-85
2022/12/30 12:20:38;;;;;;;8.68;2.22;;;20.60;99.90;;;;;;4994721;28;20675;-85
2022/12/30 12:23:22;;;;;;;7.80;2.30;;;20.60;99.90;;;;;;4994150;28;20291;-85
2022/12/30 12:26:03;;;;;;;6.38;2.30;;;20.60;99.90;;;;;;4989375;28;20200;-85
2022/12/30 12:28:35;;;;;;;7.65;2.53;;;20.60;99.90;;;;;;4995963;28;20274;-84
2022/12/30 12:31:22;;;;;;;7.50;2.50;;;20.60;99.90;;;;;;4990902;28;20302;-84
2022/12/30 12:34:05;;;;;;;5.75;2.40;;;20.60;99.90;;;;;;4989829;28;20275;-82
2022/12/30 12:36:49;;;;;;;7.80;2.78;;;20.60;99.90;;;;;;4990167;28;20279;-83
2022/12/30 12:39:30;;;;;;;8.55;3.05;;;20.60;99.90;;;;;;4993772;28;20214;-83
2022/12/30 12:42:10;;;;;;;9.93;3.08;;;20.60;99.90;;;;;;4995550;28;20283;-84
2022/12/30 12:45:15;;;;;;;9.98;3.00;;;20.60;99.90;;;;;;4995035;28;20670;-80
2022/12/30 12:48:01;;;;;;;8.95;3.20;;;20.50;99.90;;;;;;4995406;28;20282;-83
2022/12/30 12:50:45;;;;;;;6.35;2.75;;;20.50;99.90;;;;;;4994254;28;20223;-83
2022/12/30 12:53:49;;;;;;;9.90;2.75;;;20.40;99.90;;;;;;4995270;28;20279;-84
2022/12/30 12:56:39;;;;;;;11.02;2.65;;;20.40;99.90;;;;;;4991898;28;20201;-84
2022/12/30 12:59:29;;;;;;;10.50;2.90;;;20.40;99.90;;;;;;4975733;28;20197;-78
2022/12/30 13:02:07;;;;;;;11.50;2.88;;;20.40;99.90;;;;;;4993206;28;20200;-84
2022/12/30 13:04:47;;;;;;;6.10;2.67;;;20.40;99.90;;;;;;4991970;28;20290;-83
2022/12/30 13:07:29;;;;;;;7.32;2.60;;;20.40;99.90;;;;;;4993172;28;20283;-83
2022/12/30 13:10:14;;;;;;;10.98;2.60;;;20.30;99.90;;;;;;4975574;28;20649;-80
2022/12/30 13:12:56;;;;;;;9.38;2.80;;;20.30;99.90;;;;;;4989655;28;20531;-84
2022/12/30 13:15:30;;;;;;;6.78;2.28;;;20.30;99.90;;;;;;4982557;28;20207;-83
2022/12/30 13:18:05;;;;;;;8.45;2.72;;;20.30;99.90;;;;;;4991613;28;20196;-82
2022/12/30 13:20:47;;;;;;;9.35;2.75;;;20.30;99.90;;;;;;4992640;28;20199;-81
2022/12/30 13:23:21;;;;;;;10.18;2.80;;;20.30;99.90;;;;;;4993713;28;20621;-82
2022/12/30 13:25:58;;;;;;;5.25;2.35;;;20.20;99.90;;;;;;4993697;28;20208;-81
2022/12/30 13:28:32;;;;;;;7.35;2.47;;;20.20;99.90;;;;;;4994323;28;20680;-83
2022/12/30 13:31:13;;;;;;;6.40;2.85;;;20.20;99.90;;;;;;4992128;28;20210;-83
2022/12/30 13:33:54;;;;;;;6.75;2.40;;;20.20;99.90;;;;;;4994649;28;20201;-83
2022/12/30 13:36:33;;;;;;;8.38;2.55;;;20.20;99.90;;;;;;4994471;28;20291;-81
2022/12/30 13:39:19;;;;;;;6.53;2.80;;;20.20;99.90;;;;;;4994420;28;20292;-82
2022/12/30 13:42:05;;;;;;;10.27;2.70;;;20.20;99.90;;;;;;4993592;28;20199;-81
2022/12/30 13:44:42;;;;;;;7.72;2.70;;;20.20;99.90;;;;;;4994398;28;20670;-82
2022/12/30 13:47:33;;;;;;;8.48;2.83;;;20.20;99.90;;;;;;4994436;28;20282;-82
2022/12/30 13:50:16;;;;;;;8.15;2.78;;;20.20;99.90;;;;;;4994044;28;20785;-82
2022/12/30 13:52:50;;;;;;;6.13;2.50;;;20.20;99.90;;;;;;4974827;28;20653;-81
2022/12/30 13:55:24;;;;;;;9.75;2.75;;;20.10;99.90;;;;;;4984931;28;20286;-80
2022/12/30 13:58:00;;;;;;;6.60;3.00;;;20.20;99.90;;;;;;4994112;28;20285;-82
2022/12/30 14:00:35;;;;;;;7.50;2.67;;;20.10;99.90;;;;;;4994204;28;20201;-79
2022/12/30 14:03:13;;;;;;;8.68;2.90;;;20.10;99.90;;;;;;4994109;28;20198;-81
2022/12/30 14:06:01;;;;;;;6.68;2.40;;;20.10;99.90;;;;;;4993849;28;20219;-81
2022/12/30 14:09:14;;;;;;;8.30;2.78;;;20.10;99.90;;;;;;4994148;28;20202;-81
2022/12/30 14:12:16;;;;;;;6.68;2.80;;;20.10;99.90;;;;;;4993716;28;20644;-82
2022/12/30 14:14:47;;;;;;;8.13;2.60;;;20.10;99.90;;;;;;4993748;28;20200;-83
2022/12/30 14:17:27;;;;;;;7.70;2.35;;;20.10;99.90;;;;;;4993476;28;20222;-84
2022/12/30 14:20:01;;;;;;;4.70;1.98;;;20.00;99.90;;;;;;4994010;28;20567;-84
2022/12/30 14:22:59;;;;;;;6.10;2.42;;;20.00;99.90;;;;;;4993858;28;20217;-83
2022/12/30 14:25:37;;;;;;;4.97;2.28;;;20.00;99.90;;;;;;4993872;28;20199;-84
2022/12/30 14:28:23;;;;;;;7.90;3.00;;;20.00;99.90;;;;;;4994016;28;20192;-84